createdAt,value
2022-10-02T00:00:55.475Z,83.47
2022-10-02T00:03:37.820Z,83.64
2022-10-02T00:06:13.928Z,83.79
2022-10-02T00:08:42.823Z,83.85
2022-10-02T00:11:18.083Z,83.73
2022-10-02T00:13:52.835Z,83.79
2022-10-02T00:16:34.767Z,83.83
2022-10-02T00:19:03.839Z,83.93
2022-10-02T00:21:52.017Z,83.99
2022-10-02T00:24:26.576Z,83.99
2022-10-02T00:27:15.688Z,84.05
2022-10-02T00:29:53.127Z,83.83
2022-10-02T00:33:01.374Z,84.07
2022-10-02T00:36:23.355Z,84.04
2022-10-02T00:39:14.902Z,84.06
2022-10-02T00:42:22.903Z,84.12
2022-10-02T00:45:21.123Z,84.14
2022-10-02T00:48:05.003Z,84.25
2022-10-02T00:50:57.904Z,84.48
2022-10-02T00:53:40.628Z,84.45
2022-10-02T00:56:29.242Z,84.49
2022-10-02T00:59:09.428Z,84.45
2022-10-02T01:01:48.763Z,84.37
2022-10-02T01:04:29.422Z,84.66
2022-10-02T01:06:57.828Z,84.57
2022-10-02T01:09:26.301Z,84.53
2022-10-02T01:11:54.677Z,84.74
2022-10-02T01:14:32.944Z,84.61
2022-10-02T01:17:02.507Z,84.61
2022-10-02T01:19:39.638Z,84.46
2022-10-02T01:22:13.354Z,84.53
2022-10-02T01:25:04.414Z,84.53
2022-10-02T01:27:36.633Z,84.45
2022-10-02T01:30:17.256Z,84.50
2022-10-02T01:32:52.653Z,84.56
2022-10-02T01:35:23.066Z,84.56
2022-10-02T01:37:52.179Z,84.60
2022-10-02T01:40:32.787Z,84.65
2022-10-02T01:43:14.755Z,84.66
2022-10-02T01:46:19.941Z,84.59
2022-10-02T01:49:18.728Z,84.61
2022-10-02T01:52:07.953Z,84.47
2022-10-02T01:55:22.593Z,84.56
2022-10-02T01:58:17.321Z,84.52
2022-10-02T02:00:57.173Z,84.41
2022-10-02T02:03:31.313Z,84.48
2022-10-02T02:06:15.350Z,84.57
2022-10-02T02:08:50.738Z,84.50
2022-10-02T02:11:21.462Z,84.48
2022-10-02T02:14:05.918Z,84.40
2022-10-02T02:16:41.757Z,84.52
2022-10-02T02:19:19.754Z,84.33
2022-10-02T02:21:53.337Z,84.45
2022-10-02T02:24:26.684Z,84.29
2022-10-02T02:27:01.534Z,84.25
2022-10-02T02:29:33.866Z,84.32
2022-10-02T02:32:08.214Z,84.38
2022-10-02T02:34:42.751Z,84.46
2022-10-02T02:37:19.182Z,84.46
2022-10-02T02:39:52.930Z,84.48
2022-10-02T02:42:26.234Z,84.46
2022-10-02T02:45:07.081Z,84.47
2022-10-02T02:47:59.935Z,84.48
2022-10-02T02:50:36.630Z,84.36
2022-10-02T02:53:14.613Z,84.37
2022-10-02T02:55:54.112Z,84.21
2022-10-02T02:58:44.550Z,84.13
2022-10-02T03:01:12.839Z,84.17
2022-10-02T03:03:40.915Z,84.22
2022-10-02T03:06:21.594Z,84.17
2022-10-02T03:08:52.743Z,84.29
2022-10-02T03:11:30.907Z,84.19
2022-10-02T03:14:19.022Z,84.19
2022-10-02T03:17:02.515Z,84.27
2022-10-02T03:19:39.125Z,84.26
2022-10-02T03:22:22.153Z,84.29
2022-10-02T03:25:31.812Z,84.33
2022-10-02T03:28:43.433Z,84.31
2022-10-02T03:31:13.421Z,84.39
2022-10-02T03:33:44.268Z,84.51
2022-10-02T03:36:14.448Z,84.52
2022-10-02T03:38:42.849Z,84.53
2022-10-02T03:41:11.203Z,84.73
2022-10-02T03:43:39.117Z,84.60
2022-10-02T03:46:07.061Z,84.79
2022-10-02T03:48:34.983Z,84.79
2022-10-02T03:51:02.743Z,84.87
2022-10-02T03:53:34.260Z,84.87
2022-10-02T03:56:04.577Z,84.98
2022-10-02T03:58:34.298Z,85.06
2022-10-02T04:01:08.095Z,85.39
2022-10-02T04:03:43.918Z,85.22
2022-10-02T04:06:15.988Z,85.46
2022-10-02T04:08:48.325Z,85.42
2022-10-02T04:11:25.424Z,85.48
2022-10-02T04:14:17.780Z,85.46
2022-10-02T04:17:03.843Z,85.53
2022-10-02T04:20:15.494Z,85.65
2022-10-02T04:22:51.038Z,85.62
2022-10-02T04:25:24.047Z,85.47
2022-10-02T04:28:05.501Z,85.47
2022-10-02T04:30:33.937Z,85.50
2022-10-02T04:33:15.272Z,85.49
2022-10-02T04:35:57.234Z,85.46
2022-10-02T04:38:40.110Z,85.51
2022-10-02T04:41:39.705Z,85.61
2022-10-02T04:44:30.873Z,85.84
2022-10-02T04:47:01.428Z,86.11
2022-10-02T04:50:05.415Z,86.20
2022-10-02T04:52:56.846Z,86.14
2022-10-02T04:55:43.051Z,86.21
2022-10-02T04:58:35.657Z,86.40
2022-10-02T05:01:22.069Z,86.57
2022-10-02T05:04:06.379Z,86.60
2022-10-02T05:06:56.143Z,86.69
2022-10-02T05:09:56.446Z,86.79
2022-10-02T05:12:37.649Z,86.66
2022-10-02T05:15:38.176Z,86.81
2022-10-02T05:18:24.364Z,86.80
2022-10-02T05:21:29.821Z,86.82
2022-10-02T05:24:22.176Z,86.84
2022-10-02T05:27:23.290Z,86.79
2022-10-02T05:29:56.924Z,87.12
2022-10-02T05:32:46.199Z,87.08
2022-10-02T05:35:23.150Z,86.96
2022-10-02T05:38:12.665Z,87.16
2022-10-02T05:40:52.805Z,87.10
2022-10-02T05:43:43.048Z,87.19
2022-10-02T05:46:19.433Z,87.09
2022-10-02T05:48:57.302Z,87.20
2022-10-02T05:51:44.962Z,87.23
2022-10-02T05:54:27.734Z,87.46
2022-10-02T05:57:13.253Z,87.32
2022-10-02T05:59:47.448Z,87.31
2022-10-02T06:02:26.266Z,87.42
2022-10-02T06:05:01.744Z,87.43
2022-10-02T06:07:31.910Z,87.35
2022-10-02T06:10:08.101Z,87.38
2022-10-02T06:12:42.830Z,87.31
2022-10-02T06:15:10.897Z,87.43
2022-10-02T06:17:44.641Z,87.56
2022-10-02T06:20:47.306Z,87.54
2022-10-02T06:23:35.058Z,87.60
2022-10-02T06:26:07.365Z,87.50
2022-10-02T06:29:02.568Z,87.56
2022-10-02T06:31:45.670Z,87.57
2022-10-02T06:34:15.109Z,87.80
2022-10-02T06:37:18.576Z,87.64
2022-10-02T06:40:18.114Z,87.71
2022-10-02T06:42:55.499Z,87.62
2022-10-02T06:45:36.439Z,87.65
2022-10-02T06:48:30.956Z,87.60
2022-10-02T06:51:16.380Z,87.63
2022-10-02T06:54:19.424Z,87.41
2022-10-02T06:56:59.182Z,87.49
2022-10-02T07:00:10.381Z,87.49
2022-10-02T07:02:44.051Z,87.42
2022-10-02T07:05:34.943Z,87.54
2022-10-02T07:08:20.697Z,87.29
2022-10-02T07:11:18.420Z,87.23
2022-10-02T07:14:10.979Z,87.05
2022-10-02T07:17:13.392Z,86.87
2022-10-02T07:20:15.957Z,86.69
2022-10-02T07:23:10.192Z,86.66
2022-10-02T07:26:00.801Z,86.47
2022-10-02T07:28:50.575Z,86.55
2022-10-02T07:31:41.080Z,86.36
2022-10-02T07:34:32.997Z,86.25
2022-10-02T07:37:36.760Z,85.72
2022-10-02T07:40:36.045Z,85.60
2022-10-02T07:43:25.694Z,85.34
2022-10-02T07:46:18.072Z,84.97
2022-10-02T07:49:04.437Z,84.61
2022-10-02T07:51:48.136Z,84.59
2022-10-02T07:55:03.989Z,84.43
2022-10-02T07:57:52.494Z,84.42
2022-10-02T08:00:24.894Z,84.26
2022-10-02T08:03:08.655Z,84.35
2022-10-02T08:05:48.868Z,84.18
2022-10-02T08:08:26.267Z,84.09
2022-10-02T08:11:02.843Z,83.99
2022-10-02T08:13:47.544Z,83.79
2022-10-02T08:16:19.097Z,83.44
2022-10-02T08:18:58.865Z,83.42
2022-10-02T08:21:30.766Z,83.41
2022-10-02T08:24:04.580Z,83.35
2022-10-02T08:27:11.042Z,83.37
2022-10-02T08:29:53.152Z,83.13
2022-10-02T08:32:22.737Z,82.86
2022-10-02T08:34:51.065Z,82.41
2022-10-02T08:37:18.767Z,82.29
2022-10-02T08:39:59.101Z,82.64
2022-10-02T08:42:27.139Z,82.46
2022-10-02T08:45:22.787Z,82.13
2022-10-02T08:48:29.902Z,81.34
2022-10-02T08:51:13.261Z,81.39
2022-10-02T08:54:12.277Z,81.26
2022-10-02T08:56:41.254Z,81.57
2022-10-02T08:59:27.152Z,81.05
2022-10-02T09:02:21.033Z,80.50
2022-10-02T09:05:09.238Z,80.49
2022-10-02T09:07:39.898Z,80.46
2022-10-02T09:10:46.839Z,79.67
2022-10-02T09:13:15.848Z,77.63
2022-10-02T09:16:10.064Z,77.50
2022-10-02T09:19:04.079Z,77.00
2022-10-02T09:21:52.591Z,76.85
2022-10-02T09:24:44.755Z,76.69
2022-10-02T09:27:31.400Z,77.15
2022-10-02T09:30:28.430Z,76.92
2022-10-02T09:32:56.925Z,76.00
2022-10-02T09:35:56.203Z,75.06
2022-10-02T09:38:52.611Z,75.58
2022-10-02T09:41:39.187Z,75.15
2022-10-02T09:44:10.298Z,74.46
2022-10-02T09:47:19.319Z,73.83
2022-10-02T09:49:49.841Z,75.07
2022-10-02T09:52:42.976Z,75.48
2022-10-02T09:55:36.918Z,76.14
2022-10-02T09:58:23.479Z,77.18
2022-10-02T10:01:07.268Z,77.70
2022-10-02T10:04:09.481Z,77.97
2022-10-02T10:06:48.402Z,77.96
2022-10-02T10:09:53.381Z,77.89
2022-10-02T10:12:48.105Z,77.21
2022-10-02T10:15:42.308Z,77.09
2022-10-02T10:18:28.537Z,77.54
2022-10-02T10:21:31.814Z,77.99
2022-10-02T10:24:18.752Z,77.58
2022-10-02T10:27:17.562Z,76.85
2022-10-02T10:30:35.089Z,77.08
2022-10-02T10:33:34.850Z,77.30
2022-10-02T10:36:45.885Z,77.88
2022-10-02T10:39:54.910Z,78.56
2022-10-02T10:43:08.008Z,79.27
2022-10-02T10:46:07.732Z,79.47
2022-10-02T10:48:38.677Z,79.89
2022-10-02T10:51:33.120Z,80.11
2022-10-02T10:54:44.906Z,79.86
2022-10-02T10:57:26.165Z,79.63
2022-10-02T11:00:10.857Z,79.74
2022-10-02T11:02:58.067Z,80.18
2022-10-02T11:06:05.345Z,80.03
2022-10-02T11:08:55.836Z,79.34
2022-10-02T11:11:42.942Z,78.95
2022-10-02T11:14:19.866Z,78.99
2022-10-02T11:17:10.702Z,77.22
2022-10-02T11:20:02.317Z,76.76
2022-10-02T11:22:55.229Z,76.74
2022-10-02T11:25:53.383Z,76.76
2022-10-02T11:28:47.229Z,76.67
2022-10-02T11:31:47.643Z,76.15
2022-10-02T11:34:38.176Z,75.85
2022-10-02T11:37:18.069Z,75.41
2022-10-02T11:40:00.614Z,75.52
2022-10-02T11:42:45.282Z,75.37
2022-10-02T11:45:33.133Z,75.01
2022-10-02T11:48:16.446Z,75.04
2022-10-02T11:51:23.030Z,75.04
2022-10-02T11:54:06.499Z,74.75
2022-10-02T11:56:40.902Z,74.98
2022-10-02T11:59:28.544Z,75.04
2022-10-02T12:02:06.997Z,75.60
2022-10-02T12:05:13.508Z,76.05
2022-10-02T12:08:10.892Z,76.14
2022-10-02T12:10:49.978Z,76.55
2022-10-02T12:13:47.362Z,75.96
2022-10-02T12:16:35.602Z,75.57
2022-10-02T12:19:25.724Z,74.37
2022-10-02T12:22:31.876Z,74.10
2022-10-02T12:25:44.078Z,73.63
2022-10-02T12:28:30.601Z,73.97
2022-10-02T12:31:13.306Z,74.02
2022-10-02T12:34:20.126Z,73.44
2022-10-02T12:37:01.896Z,73.30
2022-10-02T12:39:46.609Z,72.82
2022-10-02T12:42:52.011Z,71.65
2022-10-02T12:45:39.079Z,71.98
2022-10-02T12:48:46.000Z,71.85
2022-10-02T12:51:47.128Z,72.64
2022-10-02T12:54:36.949Z,73.23
2022-10-02T12:57:51.991Z,73.68
2022-10-02T13:00:40.146Z,73.88
2022-10-02T13:03:25.290Z,73.43
2022-10-02T13:06:24.147Z,73.62
2022-10-02T13:09:13.988Z,74.07
2022-10-02T13:11:58.887Z,74.08
2022-10-02T13:14:35.920Z,74.33
2022-10-02T13:17:30.809Z,74.06
2022-10-02T13:20:12.253Z,73.43
2022-10-02T13:23:01.850Z,73.50
2022-10-02T13:25:44.342Z,73.60
2022-10-02T13:28:20.998Z,72.49
2022-10-02T13:31:12.187Z,72.05
2022-10-02T13:33:56.997Z,72.41
2022-10-02T13:36:55.869Z,72.74
2022-10-02T13:39:29.655Z,72.87
2022-10-02T13:42:34.505Z,72.46
2022-10-02T13:45:17.470Z,72.10
2022-10-02T13:48:05.935Z,71.64
2022-10-02T13:50:56.812Z,71.34
2022-10-02T13:54:00.938Z,71.09
2022-10-02T13:56:44.959Z,70.29
2022-10-02T13:59:30.974Z,71.10
2022-10-02T14:02:14.085Z,71.17
2022-10-02T14:04:50.987Z,71.15
2022-10-02T14:07:28.031Z,70.94
2022-10-02T14:10:45.427Z,71.22
2022-10-02T14:13:35.061Z,71.03
2022-10-02T14:16:27.813Z,71.25
2022-10-02T14:19:20.161Z,71.49
2022-10-02T14:22:33.970Z,71.49
2022-10-02T14:25:20.494Z,71.84
2022-10-02T14:28:15.864Z,71.80
2022-10-02T14:30:46.565Z,72.17
2022-10-02T14:33:20.946Z,72.35
2022-10-02T14:35:59.509Z,72.19
2022-10-02T14:38:45.719Z,72.02
2022-10-02T14:41:56.101Z,72.26
2022-10-02T14:44:45.841Z,72.49
2022-10-02T14:47:26.801Z,72.53
2022-10-02T14:50:23.541Z,72.63
2022-10-02T14:52:54.021Z,72.43
2022-10-02T14:55:50.430Z,72.16
2022-10-02T14:58:54.174Z,72.18
2022-10-02T15:01:24.355Z,72.09
2022-10-02T15:04:19.216Z,71.86
2022-10-02T15:06:59.652Z,71.64
2022-10-02T15:10:07.209Z,71.82
2022-10-02T15:12:43.811Z,72.02
2022-10-02T15:15:16.065Z,71.82
2022-10-02T15:17:57.222Z,71.76
2022-10-02T15:20:47.309Z,72.14
2022-10-02T15:23:39.023Z,72.18
2022-10-02T15:26:26.187Z,72.03
2022-10-02T15:29:13.067Z,72.28
2022-10-02T15:32:23.451Z,72.16
2022-10-02T15:35:09.634Z,72.16
2022-10-02T15:37:56.315Z,72.28
2022-10-02T15:40:31.010Z,72.21
2022-10-02T15:43:17.069Z,72.33
2022-10-02T15:46:04.252Z,72.39
2022-10-02T15:48:37.817Z,72.46
2022-10-02T15:51:53.796Z,72.63
2022-10-02T15:54:43.308Z,72.78
2022-10-02T15:57:53.462Z,72.81
2022-10-02T16:00:23.234Z,72.96
2022-10-02T16:03:15.910Z,73.23
2022-10-02T16:05:52.510Z,73.30
2022-10-02T16:08:36.349Z,73.32
2022-10-02T16:11:16.659Z,73.74
2022-10-02T16:13:48.326Z,73.59
2022-10-02T16:16:51.874Z,73.64
2022-10-02T16:19:31.504Z,73.76
2022-10-02T16:22:18.247Z,73.89
2022-10-02T16:25:10.711Z,74.10
2022-10-02T16:28:13.920Z,74.30
2022-10-02T16:30:50.669Z,74.49
2022-10-02T16:33:32.716Z,74.56
2022-10-02T16:36:41.109Z,74.71
2022-10-02T16:39:38.673Z,74.96
2022-10-02T16:42:28.658Z,74.99
2022-10-02T16:45:15.931Z,75.19
2022-10-02T16:47:50.872Z,75.25
2022-10-02T16:50:26.800Z,75.40
2022-10-02T16:53:05.445Z,75.66
2022-10-02T16:55:48.897Z,75.73
2022-10-02T16:58:26.219Z,75.77
2022-10-02T17:00:54.206Z,75.93
2022-10-02T17:03:45.235Z,76.08
2022-10-02T17:06:30.122Z,75.97
2022-10-02T17:09:13.991Z,76.18
2022-10-02T17:12:13.589Z,76.43
2022-10-02T17:15:03.166Z,76.61
2022-10-02T17:17:52.277Z,76.70
2022-10-02T17:20:25.910Z,76.96
2022-10-02T17:23:32.901Z,76.92
2022-10-02T17:26:38.800Z,77.12
2022-10-02T17:29:25.435Z,77.10
2022-10-02T17:31:56.748Z,77.18
2022-10-02T17:34:44.958Z,77.34
2022-10-02T17:37:18.093Z,77.56
2022-10-02T17:40:02.773Z,77.46
2022-10-02T17:42:45.189Z,77.75
2022-10-02T17:45:29.105Z,77.96
2022-10-02T17:48:16.056Z,78.02
2022-10-02T17:50:57.442Z,78.31
2022-10-02T17:54:17.451Z,78.57
2022-10-02T17:57:01.618Z,78.72
2022-10-02T17:59:48.641Z,78.90
2022-10-02T18:02:42.507Z,78.93
2022-10-02T18:05:20.367Z,79.21
2022-10-02T18:08:06.716Z,79.16
2022-10-02T18:11:22.696Z,79.34
2022-10-02T18:13:50.790Z,79.53
2022-10-02T18:16:24.015Z,79.47
2022-10-02T18:19:22.037Z,79.46
2022-10-02T18:21:57.194Z,79.40
2022-10-02T18:24:48.185Z,79.53
2022-10-02T18:27:37.884Z,79.49
2022-10-02T18:30:19.090Z,79.47
2022-10-02T18:33:08.657Z,79.42
2022-10-02T18:36:14.395Z,79.36
2022-10-02T18:39:20.045Z,79.32
2022-10-02T18:41:55.516Z,79.45
2022-10-02T18:44:29.754Z,79.39
2022-10-02T18:47:13.027Z,79.35
2022-10-02T18:49:40.890Z,79.41
2022-10-02T18:52:29.790Z,79.45
2022-10-02T18:55:23.615Z,79.45
2022-10-02T18:57:58.689Z,79.66
2022-10-02T19:00:40.243Z,79.66
2022-10-02T19:03:36.864Z,79.70
2022-10-02T19:06:29.864Z,79.66
2022-10-02T19:09:00.719Z,79.57
2022-10-02T19:11:31.831Z,79.63
2022-10-02T19:14:13.580Z,79.56
2022-10-02T19:16:58.183Z,79.53
2022-10-02T19:19:28.490Z,79.51
2022-10-02T19:22:01.301Z,79.60
2022-10-02T19:24:35.168Z,79.43
2022-10-02T19:27:07.387Z,79.64
2022-10-02T19:29:48.717Z,79.60
2022-10-02T19:32:25.747Z,79.46
2022-10-02T19:35:28.694Z,79.43
2022-10-02T19:38:21.825Z,79.49
2022-10-02T19:40:55.871Z,79.11
2022-10-02T19:43:34.081Z,79.22
2022-10-02T19:46:06.596Z,79.09
2022-10-02T19:48:34.781Z,79.15
2022-10-02T19:51:07.387Z,79.19
2022-10-02T19:53:40.623Z,79.08
2022-10-02T19:56:15.690Z,79.21
2022-10-02T19:58:50.159Z,78.93
2022-10-02T20:01:25.334Z,79.04
2022-10-02T20:03:59.113Z,78.95
2022-10-02T20:06:35.149Z,78.93
2022-10-02T20:09:07.932Z,79.06
2022-10-02T20:11:42.252Z,79.08
2022-10-02T20:14:13.200Z,79.03
2022-10-02T20:16:59.644Z,79.10
2022-10-02T20:19:31.955Z,79.19
2022-10-02T20:22:05.214Z,79.15
2022-10-02T20:24:45.780Z,79.12
2022-10-02T20:27:22.826Z,79.18
2022-10-02T20:29:55.800Z,79.36
2022-10-02T20:32:32.095Z,79.43
2022-10-02T20:35:07.588Z,79.41
2022-10-02T20:37:37.124Z,79.57
2022-10-02T20:40:14.948Z,79.63
2022-10-02T20:42:59.108Z,79.64
2022-10-02T20:45:38.043Z,79.59
2022-10-02T20:48:49.218Z,79.49
2022-10-02T20:52:10.231Z,79.50
2022-10-02T20:55:06.546Z,79.54
2022-10-02T20:58:02.134Z,79.52
2022-10-02T21:00:54.209Z,79.45
2022-10-02T21:03:59.767Z,79.43
2022-10-02T21:06:54.531Z,79.36
2022-10-02T21:09:59.354Z,79.24
2022-10-02T21:13:00.771Z,79.19
2022-10-02T21:15:54.800Z,79.05
2022-10-02T21:18:53.197Z,79.15
2022-10-02T21:21:54.029Z,79.12
2022-10-02T21:25:02.359Z,78.92
2022-10-02T21:28:06.558Z,78.96
2022-10-02T21:31:08.304Z,78.93
2022-10-02T21:33:42.093Z,78.99
2022-10-02T21:36:23.632Z,79.01
2022-10-02T21:39:24.452Z,79.10
2022-10-02T21:42:35.010Z,79.12
2022-10-02T21:45:38.069Z,79.14
2022-10-02T21:48:30.426Z,79.13
2022-10-02T21:51:40.996Z,79.19
2022-10-02T21:54:15.130Z,79.11
2022-10-02T21:57:02.747Z,79.24
2022-10-02T21:59:48.142Z,79.41
2022-10-02T22:02:40.074Z,79.42
2022-10-02T22:05:45.677Z,79.61
2022-10-02T22:08:28.610Z,79.74
2022-10-02T22:11:13.486Z,79.64
2022-10-02T22:13:43.926Z,79.73
2022-10-02T22:16:11.561Z,79.75
2022-10-02T22:18:49.619Z,79.95
2022-10-02T22:21:36.370Z,79.89
2022-10-02T22:24:33.341Z,79.95
2022-10-02T22:27:25.266Z,79.97
2022-10-02T22:29:55.896Z,80.10
2022-10-02T22:33:00.710Z,80.29
2022-10-02T22:35:53.061Z,80.28
2022-10-02T22:38:25.738Z,80.39
2022-10-02T22:41:02.547Z,80.44
2022-10-02T22:43:53.500Z,80.52
2022-10-02T22:46:35.758Z,80.69
2022-10-02T22:49:27.121Z,80.74
2022-10-02T22:52:26.530Z,80.92
2022-10-02T22:55:03.610Z,81.25
2022-10-02T22:57:42.204Z,81.34
2022-10-02T23:00:31.695Z,81.54
2022-10-02T23:03:20.923Z,81.57
2022-10-02T23:06:02.431Z,81.68
2022-10-02T23:09:08.162Z,81.97
2022-10-02T23:11:44.216Z,82.08
2022-10-02T23:14:28.596Z,82.39
2022-10-02T23:17:07.960Z,82.32
2022-10-02T23:19:41.227Z,82.39
2022-10-02T23:22:20.190Z,82.42
2022-10-02T23:25:03.501Z,82.50
2022-10-02T23:27:42.109Z,82.41
2022-10-02T23:30:17.745Z,82.68
2022-10-02T23:33:05.235Z,82.79
2022-10-02T23:35:49.072Z,82.92
2022-10-02T23:38:29.615Z,82.85
2022-10-02T23:41:25.213Z,82.88
2022-10-02T23:44:20.733Z,82.99
2022-10-02T23:46:51.447Z,83.03
2022-10-02T23:49:24.207Z,83.12
2022-10-02T23:52:01.529Z,83.25
2022-10-02T23:54:52.864Z,83.18
2022-10-02T23:58:13.189Z,83.50
